sensor_id;sensor_type;location;lat;lon;timestamp;temperature;humidity
25170;DHT22;13129;48.012;10.352;2022-12-07T05:03:43;1.30;99.90
25170;DHT22;13129;48.012;10.352;2022-12-07T05:06:10;1.30;99.90
25170;DHT22;13129;48.012;10.352;2022-12-07T05:08:36;1.30;99.90
25170;DHT22;13129;48.012;10.352;2022-12-07T05:11:03;1.30;99.90
25170;DHT22;13129;48.012;10.352;2022-12-07T05:13:29;1.30;99.90
25170;DHT22;13129;48.012;10.352;2022-12-07T05:15:55;1.30;99.90
25170;DHT22;13129;48.012;10.352;2022-12-07T05:18:21;1.20;99.90
25170;DHT22;13129;48.012;10.352;2022-12-07T05:20:46;1.20;99.90
25170;DHT22;13129;48.012;10.352;2022-12-07T05:23:12;1.20;99.90
25170;DHT22;13129;48.012;10.352;2022-12-07T05:28:08;1.20;99.90
25170;DHT22;13129;48.012;10.352;2022-12-07T05:30:34;1.10;99.90
25170;DHT22;13129;48.012;10.352;2022-12-07T05:32:59;1.10;99.90
25170;DHT22;13129;48.012;10.352;2022-12-07T05:35:25;1.20;99.90
25170;DHT22;13129;48.012;10.352;2022-12-07T05:37:51;1.20;99.90
25170;DHT22;13129;48.012;10.352;2022-12-07T05:40:17;1.20;99.90
25170;DHT22;13129;48.012;10.352;2022-12-07T05:42:44;1.20;99.90
25170;DHT22;13129;48.012;10.352;2022-12-07T05:45:10;1.30;99.90
25170;DHT22;13129;48.012;10.352;2022-12-07T05:47:36;1.20;99.90
25170;DHT22;13129;48.012;10.352;2022-12-07T05:50:04;1.20;99.90
25170;DHT22;13129;48.012;10.352;2022-12-07T05:52:30;1.20;99.90
25170;DHT22;13129;48.012;10.352;2022-12-07T05:54:55;1.30;99.90
25170;DHT22;13129;48.012;10.352;2022-12-07T05:57:21;1.30;99.90
25170;DHT22;13129;48.012;10.352;2022-12-07T05:59:47;1.20;99.90
25170;DHT22;13129;48.012;10.352;2022-12-07T06:02:14;1.20;99.90
25170;DHT22;13129;48.012;10.352;2022-12-07T06:04:44;1.20;99.90
25170;DHT22;13129;48.012;10.352;2022-12-07T06:07:12;1.10;99.90
25170;DHT22;13129;48.012;10.352;2022-12-07T06:09:38;1.20;99.90
25170;DHT22;13129;48.012;10.352;2022-12-07T06:12:05;1.20;99.90
25170;DHT22;13129;48.012;10.352;2022-12-07T06:14:49;1.20;99.90
25170;DHT22;13129;48.012;10.352;2022-12-07T06:17:15;1.20;99.90
25170;DHT22;13129;48.012;10.352;2022-12-07T06:19:41;1.20;99.90
25170;DHT22;13129;48.012;10.352;2022-12-07T06:22:07;1.20;99.90
25170;DHT22;13129;48.012;10.352;2022-12-07T06:24:35;1.20;99.90
25170;DHT22;13129;48.012;10.352;2022-12-07T06:27:01;1.20;99.90
25170;DHT22;13129;48.012;10.352;2022-12-07T06:29:26;1.30;99.90
25170;DHT22;13129;48.012;10.352;2022-12-07T06:31:52;1.20;99.90
25170;DHT22;13129;48.012;10.352;2022-12-07T06:34:19;1.30;99.90
25170;DHT22;13129;48.012;10.352;2022-12-07T06:44:34;1.20;99.90
25170;DHT22;13129;48.012;10.352;2022-12-07T06:47:00;1.30;99.90
25170;DHT22;13129;48.012;10.352;2022-12-07T06:49:26;1.30;99.90
25170;DHT22;13129;48.012;10.352;2022-12-07T06:51:51;1.20;99.90
25170;DHT22;13129;48.012;10.352;2022-12-07T06:54:17;1.30;99.90
25170;DHT22;13129;48.012;10.352;2022-12-07T06:58:14;1.30;99.90
25170;DHT22;13129;48.012;10.352;2022-12-07T07:00:40;1.20;99.90
25170;DHT22;13129;48.012;10.352;2022-12-07T07:03:06;1.20;99.90
25170;DHT22;13129;48.012;10.352;2022-12-07T07:05:33;1.30;99.90
25170;DHT22;13129;48.012;10.352;2022-12-07T07:07:58;1.40;99.90
25170;DHT22;13129;48.012;10.352;2022-12-07T07:10:25;1.20;99.90
25170;DHT22;13129;48.012;10.352;2022-12-07T07:15:15;1.20;99.90
25170;DHT22;13129;48.012;10.352;2022-12-07T07:17:41;1.10;99.90
25170;DHT22;13129;48.012;10.352;2022-12-07T07:20:07;1.10;99.90
25170;DHT22;13129;48.012;10.352;2022-12-07T07:22:33;1.10;99.90
25170;DHT22;13129;48.012;10.352;2022-12-07T07:24:59;1.20;99.90
25170;DHT22;13129;48.012;10.352;2022-12-07T07:27:25;1.20;99.90
25170;DHT22;13129;48.012;10.352;2022-12-07T07:29:51;1.20;99.90
25170;DHT22;13129;48.012;10.352;2022-12-07T07:32:16;1.20;99.90
25170;DHT22;13129;48.012;10.352;2022-12-07T07:34:42;1.40;99.90
25170;DHT22;13129;48.012;10.352;2022-12-07T07:37:08;1.30;99.90
25170;DHT22;13129;48.012;10.352;2022-12-07T07:39:36;1.40;99.90
25170;DHT22;13129;48.012;10.352;2022-12-07T07:42:02;1.30;99.90
25170;DHT22;13129;48.012;10.352;2022-12-07T07:44:27;1.40;99.90
25170;DHT22;13129;48.012;10.352;2022-12-07T07:48:15;1.40;99.90
25170;DHT22;13129;48.012;10.352;2022-12-07T07:50:42;1.40;99.90
25170;DHT22;13129;48.012;10.352;2022-12-07T07:55:57;1.30;99.90
25170;DHT22;13129;48.012;10.352;2022-12-07T07:58:58;1.30;99.90
25170;DHT22;13129;48.012;10.352;2022-12-07T08:01:24;1.40;99.90
25170;DHT22;13129;48.012;10.352;2022-12-07T08:05:34;1.50;99.90
25170;DHT22;13129;48.012;10.352;2022-12-07T08:07:59;1.50;99.90
25170;DHT22;13129;48.012;10.352;2022-12-07T08:10:25;1.50;99.90
25170;DHT22;13129;48.012;10.352;2022-12-07T08:12:51;1.70;99.90
25170;DHT22;13129;48.012;10.352;2022-12-07T08:15:38;1.70;99.90
25170;DHT22;13129;48.012;10.352;2022-12-07T08:18:04;1.80;99.90
25170;DHT22;13129;48.012;10.352;2022-12-07T08:20:32;1.90;99.90
25170;DHT22;13129;48.012;10.352;2022-12-07T08:22:58;2.00;99.90
25170;DHT22;13129;48.012;10.352;2022-12-07T08:25:25;2.10;99.90
25170;DHT22;13129;48.012;10.352;2022-12-07T08:27:51;2.20;99.90
25170;DHT22;13129;48.012;10.352;2022-12-07T08:30:17;2.30;99.90
25170;DHT22;13129;48.012;10.352;2022-12-07T08:32:48;2.40;99.90
25170;DHT22;13129;48.012;10.352;2022-12-07T08:35:14;2.50;99.90
25170;DHT22;13129;48.012;10.352;2022-12-07T08:37:40;2.50;99.90
25170;DHT22;13129;48.012;10.352;2022-12-07T08:40:08;2.50;99.90
25170;DHT22;13129;48.012;10.352;2022-12-07T08:42:34;2.40;99.90
25170;DHT22;13129;48.012;10.352;2022-12-07T08:45:06;2.40;99.90
25170;DHT22;13129;48.012;10.352;2022-12-07T08:47:32;2.50;99.90
25170;DHT22;13129;48.012;10.352;2022-12-07T08:49:59;2.50;99.90
25170;DHT22;13129;48.012;10.352;2022-12-07T08:52:29;2.60;99.90
25170;DHT22;13129;48.012;10.352;2022-12-07T08:54:56;2.70;99.90
25170;DHT22;13129;48.012;10.352;2022-12-07T08:57:22;2.80;99.90
25170;DHT22;13129;48.012;10.352;2022-12-07T08:59:47;2.90;99.90
25170;DHT22;13129;48.012;10.352;2022-12-07T09:02:13;2.90;99.90
25170;DHT22;13129;48.012;10.352;2022-12-07T09:04:39;2.90;99.90
25170;DHT22;13129;48.012;10.352;2022-12-07T09:07:05;3.00;99.90
25170;DHT22;13129;48.012;10.352;2022-12-07T09:09:30;3.10;99.90
25170;DHT22;13129;48.012;10.352;2022-12-07T09:11:56;3.10;99.90
25170;DHT22;13129;48.012;10.352;2022-12-07T09:14:22;3.20;99.90
25170;DHT22;13129;48.012;10.352;2022-12-07T09:16:48;3.30;99.90
25170;DHT22;13129;48.012;10.352;2022-12-07T09:19:13;3.30;99.90
25170;DHT22;13129;48.012;10.352;2022-12-07T09:21:39;3.40;99.90
25170;DHT22;13129;48.012;10.352;2022-12-07T09:24:05;3.40;99.90
25170;DHT22;13129;48.012;10.352;2022-12-07T09:26:31;3.50;99.90
25170;DHT22;13129;48.012;10.352;2022-12-07T09:28:56;3.70;99.90
25170;DHT22;13129;48.012;10.352;2022-12-07T09:31:22;3.90;99.90
25170;DHT22;13129;48.012;10.352;2022-12-07T09:33:53;4.00;99.90
25170;DHT22;13129;48.012;10.352;2022-12-07T09:36:19;4.10;99.90
25170;DHT22;13129;48.012;10.352;2022-12-07T09:38:45;4.10;99.90
25170;DHT22;13129;48.012;10.352;2022-12-07T09:41:10;4.30;99.90
25170;DHT22;13129;48.012;10.352;2022-12-07T09:43:37;4.40;99.90
25170;DHT22;13129;48.012;10.352;2022-12-07T09:46:05;4.60;99.90
25170;DHT22;13129;48.012;10.352;2022-12-07T09:48:34;4.90;99.90
25170;DHT22;13129;48.012;10.352;2022-12-07T09:53:39;5.60;99.90
25170;DHT22;13129;48.012;10.352;2022-12-07T09:56:05;5.70;99.90
25170;DHT22;13129;48.012;10.352;2022-12-07T09:58:32;5.80;99.90
25170;DHT22;13129;48.012;10.352;2022-12-07T10:01:05;5.70;99.90
25170;DHT22;13129;48.012;10.352;2022-12-07T10:03:38;5.60;99.90
25170;DHT22;13129;48.012;10.352;2022-12-07T10:06:04;5.50;99.90
25170;DHT22;13129;48.012;10.352;2022-12-07T10:08:31;5.60;99.90
25170;DHT22;13129;48.012;10.352;2022-12-07T10:10:57;5.60;99.90
25170;DHT22;13129;48.012;10.352;2022-12-07T10:13:38;5.50;99.90
25170;DHT22;13129;48.012;10.352;2022-12-07T10:16:05;5.50;99.90
25170;DHT22;13129;48.012;10.352;2022-12-07T10:18:39;5.50;99.90
25170;DHT22;13129;48.012;10.352;2022-12-07T10:21:17;5.50;99.90
25170;DHT22;13129;48.012;10.352;2022-12-07T10:26:48;5.50;99.90
25170;DHT22;13129;48.012;10.352;2022-12-07T10:29:22;5.50;99.90
25170;DHT22;13129;48.012;10.352;2022-12-07T10:31:54;5.50;99.90
25170;DHT22;13129;48.012;10.352;2022-12-07T10:36:50;5.50;99.90
25170;DHT22;13129;48.012;10.352;2022-12-07T10:39:19;5.50;99.90
25170;DHT22;13129;48.012;10.352;2022-12-07T10:41:59;5.60;99.90
25170;DHT22;13129;48.012;10.352;2022-12-07T10:44:33;5.60;99.90
25170;DHT22;13129;48.012;10.352;2022-12-07T10:47:10;5.60;99.90
25170;DHT22;13129;48.012;10.352;2022-12-07T11:00:25;5.70;99.90
25170;DHT22;13129;48.012;10.352;2022-12-07T11:23:29;6.20;99.90
25170;DHT22;13129;48.012;10.352;2022-12-07T11:25:49;6.10;99.90
25170;DHT22;13129;48.012;10.352;2022-12-07T11:29:01;6.10;99.90
25170;DHT22;13129;48.012;10.352;2022-12-07T11:31:58;6.30;99.90
25170;DHT22;13129;48.012;10.352;2022-12-07T11:37:33;6.20;99.90
25170;DHT22;13129;48.012;10.352;2022-12-07T11:40:05;6.20;99.90
25170;DHT22;13129;48.012;10.352;2022-12-07T11:42:42;6.20;99.90
25170;DHT22;13129;48.012;10.352;2022-12-07T11:45:23;6.20;99.90
25170;DHT22;13129;48.012;10.352;2022-12-07T11:50:48;6.20;99.90
25170;DHT22;13129;48.012;10.352;2022-12-07T11:53:22;6.20;99.90
25170;DHT22;13129;48.012;10.352;2022-12-07T12:06:35;6.20;99.90
25170;DHT22;13129;48.012;10.352;2022-12-07T12:09:17;6.10;99.90
25170;DHT22;13129;48.012;10.352;2022-12-07T12:20:40;5.70;99.90
25170;DHT22;13129;48.012;10.352;2022-12-07T12:23:20;5.70;99.90
25170;DHT22;13129;48.012;10.352;2022-12-07T12:25:53;5.70;99.90
25170;DHT22;13129;48.012;10.352;2022-12-07T12:33:31;5.70;99.90
25170;DHT22;13129;48.012;10.352;2022-12-07T12:46:47;5.60;99.90
25170;DHT22;13129;48.012;10.352;2022-12-07T12:57:17;5.50;99.90
25170;DHT22;13129;48.012;10.352;2022-12-07T13:02:32;5.40;99.90
25170;DHT22;13129;48.012;10.352;2022-12-07T13:10:37;5.10;99.90
25170;DHT22;13129;48.012;10.352;2022-12-07T13:15:55;5.10;99.90
25170;DHT22;13129;48.012;10.352;2022-12-07T13:18:40;5.10;99.90
25170;DHT22;13129;48.012;10.352;2022-12-07T13:28:47;4.80;99.90
25170;DHT22;13129;48.012;10.352;2022-12-07T13:33:46;4.70;99.90
25170;DHT22;13129;48.012;10.352;2022-12-07T13:36:25;4.60;99.90
25170;DHT22;13129;48.012;10.352;2022-12-07T13:38:57;4.60;99.90
25170;DHT22;13129;48.012;10.352;2022-12-07T13:41:25;4.60;99.90
25170;DHT22;13129;48.012;10.352;2022-12-07T13:44:07;4.60;99.90
25170;DHT22;13129;48.012;10.352;2022-12-07T13:47:06;4.60;99.90
25170;DHT22;13129;48.012;10.352;2022-12-07T13:49:38;4.40;99.90
25170;DHT22;13129;48.012;10.352;2022-12-07T13:52:17;4.40;99.90
25170;DHT22;13129;48.012;10.352;2022-12-07T13:57:30;4.20;99.90
25170;DHT22;13129;48.012;10.352;2022-12-07T13:59:57;4.20;99.90
25170;DHT22;13129;48.012;10.352;2022-12-07T14:02:30;4.10;99.90
25170;DHT22;13129;48.012;10.352;2022-12-07T14:05:32;4.10;99.90
25170;DHT22;13129;48.012;10.352;2022-12-07T14:08:02;4.00;99.90
25170;DHT22;13129;48.012;10.352;2022-12-07T14:10:33;3.90;99.90
25170;DHT22;13129;48.012;10.352;2022-12-07T14:13:02;3.90;99.90
25170;DHT22;13129;48.012;10.352;2022-12-07T14:15:33;3.80;99.90
25170;DHT22;13129;48.012;10.352;2022-12-07T14:18:01;3.70;99.90
25170;DHT22;13129;48.012;10.352;2022-12-07T14:20:37;3.60;99.90
25170;DHT22;13129;48.012;10.352;2022-12-07T14:23:03;3.50;99.90
25170;DHT22;13129;48.012;10.352;2022-12-07T14:26:03;3.40;99.90
25170;DHT22;13129;48.012;10.352;2022-12-07T14:28:32;3.30;99.90
25170;DHT22;13129;48.012;10.352;2022-12-07T14:30:59;3.20;99.90
25170;DHT22;13129;48.012;10.352;2022-12-07T14:33:26;3.10;99.90
25170;DHT22;13129;48.012;10.352;2022-12-07T14:35:52;3.00;99.90
25170;DHT22;13129;48.012;10.352;2022-12-07T14:38:21;2.90;99.90
25170;DHT22;13129;48.012;10.352;2022-12-07T14:40:47;2.70;99.90
25170;DHT22;13129;48.012;10.352;2022-12-07T14:43:15;2.60;99.90
25170;DHT22;13129;48.012;10.352;2022-12-07T14:45:42;2.40;99.90
25170;DHT22;13129;48.012;10.352;2022-12-07T14:48:11;2.20;99.90
25170;DHT22;13129;48.012;10.352;2022-12-07T14:50:40;2.10;99.90
25170;DHT22;13129;48.012;10.352;2022-12-07T14:53:14;1.90;99.90
25170;DHT22;13129;48.012;10.352;2022-12-07T14:55:41;1.80;99.90
25170;DHT22;13129;48.012;10.352;2022-12-07T14:58:13;1.80;99.90
25170;DHT22;13129;48.012;10.352;2022-12-07T15:00:39;1.60;99.90
25170;DHT22;13129;48.012;10.352;2022-12-07T15:03:04;1.50;99.90
25170;DHT22;13129;48.012;10.352;2022-12-07T15:05:30;1.50;99.90
25170;DHT22;13129;48.012;10.352;2022-12-07T15:07:56;1.40;99.90
25170;DHT22;13129;48.012;10.352;2022-12-07T15:10:27;1.30;99.90
25170;DHT22;13129;48.012;10.352;2022-12-07T15:12:56;1.20;99.90
25170;DHT22;13129;48.012;10.352;2022-12-07T15:15:41;1.10;99.90
25170;DHT22;13129;48.012;10.352;2022-12-07T15:18:07;1.00;99.90
25170;DHT22;13129;48.012;10.352;2022-12-07T15:20:33;0.90;99.90
25170;DHT22;13129;48.012;10.352;2022-12-07T15:22:58;0.90;99.90
25170;DHT22;13129;48.012;10.352;2022-12-07T15:25:24;0.80;99.90
25170;DHT22;13129;48.012;10.352;2022-12-07T15:27:50;0.90;99.90
25170;DHT22;13129;48.012;10.352;2022-12-07T15:30:16;0.80;99.90
25170;DHT22;13129;48.012;10.352;2022-12-07T15:32:41;0.80;99.90
25170;DHT22;13129;48.012;10.352;2022-12-07T15:35:07;0.70;99.90
25170;DHT22;13129;48.012;10.352;2022-12-07T15:37:33;0.60;99.90
25170;DHT22;13129;48.012;10.352;2022-12-07T15:39:59;0.60;99.90
25170;DHT22;13129;48.012;10.352;2022-12-07T15:42:24;0.60;99.90
25170;DHT22;13129;48.012;10.352;2022-12-07T15:44:50;0.50;99.90
25170;DHT22;13129;48.012;10.352;2022-12-07T15:47:36;0.50;99.90
25170;DHT22;13129;48.012;10.352;2022-12-07T15:50:07;0.40;99.90
25170;DHT22;13129;48.012;10.352;2022-12-07T15:52:33;0.30;99.90
25170;DHT22;13129;48.012;10.352;2022-12-07T15:54:59;0.20;99.90
25170;DHT22;13129;48.012;10.352;2022-12-07T15:57:31;0.20;99.90
25170;DHT22;13129;48.012;10.352;2022-12-07T15:59:57;0.10;99.90
25170;DHT22;13129;48.012;10.352;2022-12-07T16:02:24;0.00;99.90
25170;DHT22;13129;48.012;10.352;2022-12-07T16:04:51;-0.10;99.90
25170;DHT22;13129;48.012;10.352;2022-12-07T16:07:17;-0.10;99.90
25170;DHT22;13129;48.012;10.352;2022-12-07T16:09:43;-0.20;99.90
25170;DHT22;13129;48.012;10.352;2022-12-07T16:12:10;-0.20;99.90
25170;DHT22;13129;48.012;10.352;2022-12-07T16:14:37;-0.20;99.90
25170;DHT22;13129;48.012;10.352;2022-12-07T16:17:03;-0.30;99.90
25170;DHT22;13129;48.012;10.352;2022-12-07T16:19:30;-0.30;99.90
25170;DHT22;13129;48.012;10.352;2022-12-07T16:21:56;-0.20;99.90
25170;DHT22;13129;48.012;10.352;2022-12-07T16:24:22;-0.30;99.90
25170;DHT22;13129;48.012;10.352;2022-12-07T16:26:48;-0.40;99.90
25170;DHT22;13129;48.012;10.352;2022-12-07T16:29:15;-0.50;99.90
25170;DHT22;13129;48.012;10.352;2022-12-07T16:31:40;-0.60;99.90
25170;DHT22;13129;48.012;10.352;2022-12-07T16:34:06;-0.60;99.90
25170;DHT22;13129;48.012;10.352;2022-12-07T16:36:32;-0.80;99.90
25170;DHT22;13129;48.012;10.352;2022-12-07T16:38:59;-0.80;99.90
25170;DHT22;13129;48.012;10.352;2022-12-07T16:41:25;-1.00;99.90
25170;DHT22;13129;48.012;10.352;2022-12-07T16:43:50;-1.00;99.90
25170;DHT22;13129;48.012;10.352;2022-12-07T16:46:16;-1.00;99.90
25170;DHT22;13129;48.012;10.352;2022-12-07T16:48:42;-1.10;99.90
25170;DHT22;13129;48.012;10.352;2022-12-07T16:51:10;-1.10;99.90
25170;DHT22;13129;48.012;10.352;2022-12-07T16:53:38;-1.20;99.90
25170;DHT22;13129;48.012;10.352;2022-12-07T16:56:09;-1.20;99.90
25170;DHT22;13129;48.012;10.352;2022-12-07T16:58:34;-1.20;99.90
25170;DHT22;13129;48.012;10.352;2022-12-07T17:01:14;-1.20;99.90
25170;DHT22;13129;48.012;10.352;2022-12-07T17:03:40;-1.20;99.90
25170;DHT22;13129;48.012;10.352;2022-12-07T17:06:32;-1.10;99.90
25170;DHT22;13129;48.012;10.352;2022-12-07T17:08:58;-1.00;99.90
25170;DHT22;13129;48.012;10.352;2022-12-07T17:11:26;-0.90;99.90
25170;DHT22;13129;48.012;10.352;2022-12-07T17:13:53;-1.00;99.90
25170;DHT22;13129;48.012;10.352;2022-12-07T17:16:37;-0.90;99.90
25170;DHT22;13129;48.012;10.352;2022-12-07T17:19:07;-0.90;99.90
25170;DHT22;13129;48.012;10.352;2022-12-07T17:21:34;-0.90;99.90
25170;DHT22;13129;48.012;10.352;2022-12-07T17:24:00;-0.90;99.90
25170;DHT22;13129;48.012;10.352;2022-12-07T17:26:27;-0.90;99.90
25170;DHT22;13129;48.012;10.352;2022-12-07T17:28:53;-1.00;99.90
25170;DHT22;13129;48.012;10.352;2022-12-07T17:31:20;-1.00;99.90
25170;DHT22;13129;48.012;10.352;2022-12-07T17:33:47;-0.90;99.90
25170;DHT22;13129;48.012;10.352;2022-12-07T17:36:21;-0.90;99.90
25170;DHT22;13129;48.012;10.352;2022-12-07T17:38:48;-0.90;99.90
25170;DHT22;13129;48.012;10.352;2022-12-07T17:41:17;-0.80;99.90
25170;DHT22;13129;48.012;10.352;2022-12-07T17:44:02;-0.70;99.90
25170;DHT22;13129;48.012;10.352;2022-12-07T17:46:29;-0.70;99.90
25170;DHT22;13129;48.012;10.352;2022-12-07T17:48:56;-0.80;99.90
25170;DHT22;13129;48.012;10.352;2022-12-07T17:51:22;-0.80;99.90
25170;DHT22;13129;48.012;10.352;2022-12-07T17:54:06;-0.80;99.90
25170;DHT22;13129;48.012;10.352;2022-12-07T17:56:32;-0.70;99.90
25170;DHT22;13129;48.012;10.352;2022-12-07T17:58:57;-0.80;99.90
25170;DHT22;13129;48.012;10.352;2022-12-07T18:01:23;-0.80;99.90
25170;DHT22;13129;48.012;10.352;2022-12-07T18:03:49;-0.80;99.90
25170;DHT22;13129;48.012;10.352;2022-12-07T18:06:14;-0.70;99.90
25170;DHT22;13129;48.012;10.352;2022-12-07T18:08:40;-0.70;99.90
25170;DHT22;13129;48.012;10.352;2022-12-07T18:11:11;-0.70;99.90
25170;DHT22;13129;48.012;10.352;2022-12-07T18:13:37;-0.70;99.90
25170;DHT22;13129;48.012;10.352;2022-12-07T18:16:06;-0.70;99.90
25170;DHT22;13129;48.012;10.352;2022-12-07T18:18:33;-0.70;99.90
25170;DHT22;13129;48.012;10.352;2022-12-07T18:21:02;-0.60;99.90
25170;DHT22;13129;48.012;10.352;2022-12-07T18:23:28;-0.70;99.90
25170;DHT22;13129;48.012;10.352;2022-12-07T18:25:54;-0.70;99.90
25170;DHT22;13129;48.012;10.352;2022-12-07T18:28:20;-0.60;99.90
25170;DHT22;13129;48.012;10.352;2022-12-07T18:30:46;-0.70;99.90
25170;DHT22;13129;48.012;10.352;2022-12-07T18:33:19;-0.80;99.90
25170;DHT22;13129;48.012;10.352;2022-12-07T18:35:46;-0.90;99.90
25170;DHT22;13129;48.012;10.352;2022-12-07T18:38:13;-0.90;99.90
25170;DHT22;13129;48.012;10.352;2022-12-07T18:40:40;-0.80;99.90
25170;DHT22;13129;48.012;10.352;2022-12-07T18:43:06;-0.90;99.90
25170;DHT22;13129;48.012;10.352;2022-12-07T18:45:40;-0.80;99.90
25170;DHT22;13129;48.012;10.352;2022-12-07T18:48:07;-0.80;99.90
25170;DHT22;13129;48.012;10.352;2022-12-07T18:50:33;-0.80;99.90
25170;DHT22;13129;48.012;10.352;2022-12-07T18:53:00;-0.80;99.90
25170;DHT22;13129;48.012;10.352;2022-12-07T18:55:27;-0.80;99.90
25170;DHT22;13129;48.012;10.352;2022-12-07T18:57:54;-0.80;99.90
25170;DHT22;13129;48.012;10.352;2022-12-07T19:00:20;-0.80;99.90
25170;DHT22;13129;48.012;10.352;2022-12-07T19:02:48;-0.80;99.90
25170;DHT22;13129;48.012;10.352;2022-12-07T19:05:14;-0.70;99.90
25170;DHT22;13129;48.012;10.352;2022-12-07T19:07:39;-0.70;99.90
25170;DHT22;13129;48.012;10.352;2022-12-07T19:10:06;-0.70;99.90
25170;DHT22;13129;48.012;10.352;2022-12-07T19:12:33;-0.70;99.90
25170;DHT22;13129;48.012;10.352;2022-12-07T19:14:59;-0.80;99.90
25170;DHT22;13129;48.012;10.352;2022-12-07T19:17:24;-0.80;99.90
25170;DHT22;13129;48.012;10.352;2022-12-07T19:19:50;-0.90;99.90
25170;DHT22;13129;48.012;10.352;2022-12-07T19:22:18;-0.90;99.90
25170;DHT22;13129;48.012;10.352;2022-12-07T19:24:44;-0.90;99.90
25170;DHT22;13129;48.012;10.352;2022-12-07T19:27:12;-1.00;99.90
25170;DHT22;13129;48.012;10.352;2022-12-07T19:29:39;-1.00;99.90
25170;DHT22;13129;48.012;10.352;2022-12-07T19:32:06;-0.90;99.90
25170;DHT22;13129;48.012;10.352;2022-12-07T19:34:35;-0.90;99.90
25170;DHT22;13129;48.012;10.352;2022-12-07T19:37:01;-0.80;99.90
25170;DHT22;13129;48.012;10.352;2022-12-07T19:39:26;-0.90;99.90
25170;DHT22;13129;48.012;10.352;2022-12-07T19:41:52;-0.80;99.90
25170;DHT22;13129;48.012;10.352;2022-12-07T19:44:20;-0.80;99.90
25170;DHT22;13129;48.012;10.352;2022-12-07T19:46:54;-0.80;99.90
25170;DHT22;13129;48.012;10.352;2022-12-07T19:49:21;-0.70;99.90
25170;DHT22;13129;48.012;10.352;2022-12-07T19:51:49;-0.80;99.90
25170;DHT22;13129;48.012;10.352;2022-12-07T19:54:18;-0.80;99.90
25170;DHT22;13129;48.012;10.352;2022-12-07T19:56:44;-0.70;99.90
25170;DHT22;13129;48.012;10.352;2022-12-07T19:59:11;-0.80;99.90
25170;DHT22;13129;48.012;10.352;2022-12-07T20:01:37;-0.80;99.90
25170;DHT22;13129;48.012;10.352;2022-12-07T20:04:06;-0.90;99.90
25170;DHT22;13129;48.012;10.352;2022-12-07T20:06:32;-0.90;99.90
25170;DHT22;13129;48.012;10.352;2022-12-07T20:08:58;-0.70;99.90
25170;DHT22;13129;48.012;10.352;2022-12-07T20:11:24;-0.80;99.90
25170;DHT22;13129;48.012;10.352;2022-12-07T20:14:10;-0.60;99.90
25170;DHT22;13129;48.012;10.352;2022-12-07T20:16:37;-0.60;99.90
25170;DHT22;13129;48.012;10.352;2022-12-07T20:19:07;-0.60;99.90
25170;DHT22;13129;48.012;10.352;2022-12-07T20:21:34;-0.70;99.90
25170;DHT22;13129;48.012;10.352;2022-12-07T20:24:00;-0.60;99.90
25170;DHT22;13129;48.012;10.352;2022-12-07T20:26:27;-0.50;99.90
25170;DHT22;13129;48.012;10.352;2022-12-07T20:28:53;-0.40;99.90
25170;DHT22;13129;48.012;10.352;2022-12-07T20:31:18;-0.30;99.90
25170;DHT22;13129;48.012;10.352;2022-12-07T20:33:44;-0.30;99.90
25170;DHT22;13129;48.012;10.352;2022-12-07T20:36:11;-0.20;99.90
25170;DHT22;13129;48.012;10.352;2022-12-07T20:38:38;-0.10;99.90
25170;DHT22;13129;48.012;10.352;2022-12-07T20:41:05;-0.20;99.90
25170;DHT22;13129;48.012;10.352;2022-12-07T20:43:32;-0.20;99.90
25170;DHT22;13129;48.012;10.352;2022-12-07T20:45:58;-0.10;99.90
25170;DHT22;13129;48.012;10.352;2022-12-07T20:48:25;-0.20;99.90
25170;DHT22;13129;48.012;10.352;2022-12-07T20:50:51;-0.20;99.90
25170;DHT22;13129;48.012;10.352;2022-12-07T20:53:17;-0.20;99.90
25170;DHT22;13129;48.012;10.352;2022-12-07T20:55:43;-0.20;99.90
25170;DHT22;13129;48.012;10.352;2022-12-07T20:58:08;-0.40;99.90
25170;DHT22;13129;48.012;10.352;2022-12-07T21:00:35;-0.40;99.90
25170;DHT22;13129;48.012;10.352;2022-12-07T21:03:02;-0.40;99.90
25170;DHT22;13129;48.012;10.352;2022-12-07T21:05:28;-0.40;99.90
25170;DHT22;13129;48.012;10.352;2022-12-07T21:07:54;-0.30;99.90
25170;DHT22;13129;48.012;10.352;2022-12-07T21:10:20;-0.30;99.90
25170;DHT22;13129;48.012;10.352;2022-12-07T21:12:46;-0.40;99.90
25170;DHT22;13129;48.012;10.352;2022-12-07T21:15:12;-0.40;99.90
25170;DHT22;13129;48.012;10.352;2022-12-07T21:17:37;-0.50;99.90
25170;DHT22;13129;48.012;10.352;2022-12-07T21:20:04;-0.50;99.90
25170;DHT22;13129;48.012;10.352;2022-12-07T21:22:29;-0.60;99.90
25170;DHT22;13129;48.012;10.352;2022-12-07T21:24:55;-0.80;99.90
25170;DHT22;13129;48.012;10.352;2022-12-07T21:27:21;-0.80;99.90
25170;DHT22;13129;48.012;10.352;2022-12-07T21:29:46;-0.80;99.90
25170;DHT22;13129;48.012;10.352;2022-12-07T21:32:13;-0.80;99.90
25170;DHT22;13129;48.012;10.352;2022-12-07T21:34:39;-0.70;99.90
25170;DHT22;13129;48.012;10.352;2022-12-07T21:37:05;-0.60;99.90
25170;DHT22;13129;48.012;10.352;2022-12-07T21:39:31;-0.50;99.90
25170;DHT22;13129;48.012;10.352;2022-12-07T21:41:57;-0.50;99.90
25170;DHT22;13129;48.012;10.352;2022-12-07T21:44:22;-0.50;99.90
25170;DHT22;13129;48.012;10.352;2022-12-07T21:46:48;-0.50;99.90
25170;DHT22;13129;48.012;10.352;2022-12-07T21:49:14;-0.50;99.90
25170;DHT22;13129;48.012;10.352;2022-12-07T21:51:42;-0.50;99.90
25170;DHT22;13129;48.012;10.352;2022-12-07T21:54:09;-0.60;99.90
25170;DHT22;13129;48.012;10.352;2022-12-07T21:56:38;-0.60;99.90
25170;DHT22;13129;48.012;10.352;2022-12-07T21:59:12;-0.60;99.90
25170;DHT22;13129;48.012;10.352;2022-12-07T22:01:40;-0.50;99.90
25170;DHT22;13129;48.012;10.352;2022-12-07T22:04:10;-0.40;99.90
25170;DHT22;13129;48.012;10.352;2022-12-07T22:06:36;-0.30;99.90
25170;DHT22;13129;48.012;10.352;2022-12-07T22:09:04;-0.30;99.90
25170;DHT22;13129;48.012;10.352;2022-12-07T22:11:29;-0.30;99.90
25170;DHT22;13129;48.012;10.352;2022-12-07T22:13:55;-0.40;99.90
25170;DHT22;13129;48.012;10.352;2022-12-07T22:16:39;-0.40;99.90
25170;DHT22;13129;48.012;10.352;2022-12-07T22:19:05;-0.50;99.90
25170;DHT22;13129;48.012;10.352;2022-12-07T22:21:32;-0.40;99.90
25170;DHT22;13129;48.012;10.352;2022-12-07T22:23:58;-0.30;99.90
25170;DHT22;13129;48.012;10.352;2022-12-07T22:26:23;-0.20;99.90
25170;DHT22;13129;48.012;10.352;2022-12-07T22:28:49;-0.20;99.90
25170;DHT22;13129;48.012;10.352;2022-12-07T22:31:16;-0.30;99.90
25170;DHT22;13129;48.012;10.352;2022-12-07T22:33:42;-0.30;99.90
25170;DHT22;13129;48.012;10.352;2022-12-07T22:36:09;-0.30;99.90
25170;DHT22;13129;48.012;10.352;2022-12-07T22:38:35;-0.30;99.90
25170;DHT22;13129;48.012;10.352;2022-12-07T22:41:11;-0.30;99.90
25170;DHT22;13129;48.012;10.352;2022-12-07T22:43:38;-0.30;99.90
25170;DHT22;13129;48.012;10.352;2022-12-07T22:48:31;-0.20;99.90
25170;DHT22;13129;48.012;10.352;2022-12-07T22:50:57;-0.30;99.90